sensor_id;sensor_type;location;lat;lon;timestamp;temperature;humidity
70154;DHT22;57519;51.494;-2.626;2022-12-07T00:01:12;0.67;94.63
70154;DHT22;57519;51.494;-2.626;2022-12-07T00:03:38;0.59;94.71
70154;DHT22;57519;51.494;-2.626;2022-12-07T00:06:06;0.49;94.80
70154;DHT22;57519;51.494;-2.626;2022-12-07T00:08:33;0.43;94.86
70154;DHT22;57519;51.494;-2.626;2022-12-07T00:11:06;0.43;94.93
70154;DHT22;57519;51.494;-2.626;2022-12-07T00:13:32;0.35;95.07
70154;DHT22;57519;51.494;-2.626;2022-12-07T00:16:07;0.33;95.04
70154;DHT22;57519;51.494;-2.626;2022-12-07T00:18:33;0.32;95.10
70154;DHT22;57519;51.494;-2.626;2022-12-07T00:21:09;0.24;95.13
70154;DHT22;57519;51.494;-2.626;2022-12-07T00:23:35;0.30;95.26
70154;DHT22;57519;51.494;-2.626;2022-12-07T00:26:09;0.39;95.34
70154;DHT22;57519;51.494;-2.626;2022-12-07T00:28:35;0.45;95.43
70154;DHT22;57519;51.494;-2.626;2022-12-07T00:31:04;0.46;95.46
70154;DHT22;57519;51.494;-2.626;2022-12-07T00:33:30;0.48;95.44
70154;DHT22;57519;51.494;-2.626;2022-12-07T00:35:57;0.45;95.32
70154;DHT22;57519;51.494;-2.626;2022-12-07T00:38:23;0.30;95.16
70154;DHT22;57519;51.494;-2.626;2022-12-07T00:40:59;0.21;95.12
70154;DHT22;57519;51.494;-2.626;2022-12-07T00:43:25;0.09;95.10
70154;DHT22;57519;51.494;-2.626;2022-12-07T00:45:51;0.02;95.04
70154;DHT22;57519;51.494;-2.626;2022-12-07T00:48:17;-0.03;95.23
70154;DHT22;57519;51.494;-2.626;2022-12-07T00:50:42;-0.03;95.37
70154;DHT22;57519;51.494;-2.626;2022-12-07T00:53:08;-0.12;95.33
70154;DHT22;57519;51.494;-2.626;2022-12-07T00:55:34;-0.17;95.38
70154;DHT22;57519;51.494;-2.626;2022-12-07T00:57:59;-0.24;95.36
70154;DHT22;57519;51.494;-2.626;2022-12-07T01:00:25;-0.34;95.36
70154;DHT22;57519;51.494;-2.626;2022-12-07T01:02:50;-0.36;95.46
70154;DHT22;57519;51.494;-2.626;2022-12-07T01:05:16;-0.32;95.59
70154;DHT22;57519;51.494;-2.626;2022-12-07T01:07:41;-0.37;95.59
70154;DHT22;57519;51.494;-2.626;2022-12-07T01:10:07;-0.40;95.57
70154;DHT22;57519;51.494;-2.626;2022-12-07T01:12:32;-0.43;95.53
70154;DHT22;57519;51.494;-2.626;2022-12-07T01:14:58;-0.45;95.56
70154;DHT22;57519;51.494;-2.626;2022-12-07T01:17:23;-0.49;95.56
70154;DHT22;57519;51.494;-2.626;2022-12-07T01:19:48;-0.49;95.62
70154;DHT22;57519;51.494;-2.626;2022-12-07T01:22:14;-0.43;95.64
70154;DHT22;57519;51.494;-2.626;2022-12-07T01:24:39;-0.41;95.64
70154;DHT22;57519;51.494;-2.626;2022-12-07T01:27:05;-0.44;95.62
70154;DHT22;57519;51.494;-2.626;2022-12-07T01:29:30;-0.53;95.46
70154;DHT22;57519;51.494;-2.626;2022-12-07T01:31:55;-0.53;95.44
70154;DHT22;57519;51.494;-2.626;2022-12-07T01:34:21;-0.49;95.48
70154;DHT22;57519;51.494;-2.626;2022-12-07T01:36:46;-0.53;95.45
70154;DHT22;57519;51.494;-2.626;2022-12-07T01:39:11;-0.58;95.39
70154;DHT22;57519;51.494;-2.626;2022-12-07T01:41:39;-0.70;95.30
70154;DHT22;57519;51.494;-2.626;2022-12-07T01:46:53;-0.72;95.39
70154;DHT22;57519;51.494;-2.626;2022-12-07T01:52:24;-0.82;95.51
70154;DHT22;57519;51.494;-2.626;2022-12-07T01:54:55;-0.84;95.56
70154;DHT22;57519;51.494;-2.626;2022-12-07T01:57:23;-0.89;95.57
70154;DHT22;57519;51.494;-2.626;2022-12-07T01:59:50;-0.77;95.63
70154;DHT22;57519;51.494;-2.626;2022-12-07T02:02:32;-0.80;95.68
70154;DHT22;57519;51.494;-2.626;2022-12-07T02:05:00;-0.82;95.60
70154;DHT22;57519;51.494;-2.626;2022-12-07T02:07:27;-0.87;95.61
70154;DHT22;57519;51.494;-2.626;2022-12-07T02:09:53;-0.89;95.64
70154;DHT22;57519;51.494;-2.626;2022-12-07T02:12:19;-0.93;95.63
70154;DHT22;57519;51.494;-2.626;2022-12-07T02:14:45;-0.95;95.73
70154;DHT22;57519;51.494;-2.626;2022-12-07T02:35:34;-0.87;95.63
70154;DHT22;57519;51.494;-2.626;2022-12-07T02:38:20;-0.92;95.57
70154;DHT22;57519;51.494;-2.626;2022-12-07T02:41:40;-1.01;95.51
70154;DHT22;57519;51.494;-2.626;2022-12-07T02:43:44;-0.99;95.54
70154;DHT22;57519;51.494;-2.626;2022-12-07T02:46:14;-1.03;95.57
70154;DHT22;57519;51.494;-2.626;2022-12-07T02:48:42;-1.05;95.58
70154;DHT22;57519;51.494;-2.626;2022-12-07T02:51:08;-1.08;95.58
70154;DHT22;57519;51.494;-2.626;2022-12-07T02:53:42;-1.06;95.59
70154;DHT22;57519;51.494;-2.626;2022-12-07T03:07:49;-0.47;96.59
70154;DHT22;57519;51.494;-2.626;2022-12-07T03:15:58;-0.62;96.27
70154;DHT22;57519;51.494;-2.626;2022-12-07T03:18:28;-0.61;96.17
70154;DHT22;57519;51.494;-2.626;2022-12-07T03:21:00;-0.58;96.13
70154;DHT22;57519;51.494;-2.626;2022-12-07T03:23:28;-0.72;95.97
70154;DHT22;57519;51.494;-2.626;2022-12-07T03:25:58;-0.82;95.80
70154;DHT22;57519;51.494;-2.626;2022-12-07T03:28:29;-0.95;95.71
70154;DHT22;57519;51.494;-2.626;2022-12-07T03:31:01;-0.93;95.69
70154;DHT22;57519;51.494;-2.626;2022-12-07T03:33:32;-0.99;95.70
70154;DHT22;57519;51.494;-2.626;2022-12-07T03:36:24;-0.96;95.77
70154;DHT22;57519;51.494;-2.626;2022-12-07T03:39:11;-0.95;95.80
70154;DHT22;57519;51.494;-2.626;2022-12-07T03:41:40;-0.89;95.86
70154;DHT22;57519;51.494;-2.626;2022-12-07T03:44:06;-0.88;95.93
70154;DHT22;57519;51.494;-2.626;2022-12-07T03:46:49;-0.93;95.89
70154;DHT22;57519;51.494;-2.626;2022-12-07T03:49:26;-1.03;95.81
70154;DHT22;57519;51.494;-2.626;2022-12-07T03:55:02;-1.10;95.78
70154;DHT22;57519;51.494;-2.626;2022-12-07T03:57:33;-1.20;95.78
70154;DHT22;57519;51.494;-2.626;2022-12-07T03:59:58;-1.28;95.81
70154;DHT22;57519;51.494;-2.626;2022-12-07T04:02:27;-1.35;95.79
70154;DHT22;57519;51.494;-2.626;2022-12-07T04:04:54;-1.36;95.86
70154;DHT22;57519;51.494;-2.626;2022-12-07T04:07:19;-1.42;95.90
70154;DHT22;57519;51.494;-2.626;2022-12-07T04:09:45;-1.40;95.91
70154;DHT22;57519;51.494;-2.626;2022-12-07T04:12:10;-1.47;95.92
70154;DHT22;57519;51.494;-2.626;2022-12-07T04:14:36;-1.48;95.96
70154;DHT22;57519;51.494;-2.626;2022-12-07T04:17:01;-1.51;95.97
70154;DHT22;57519;51.494;-2.626;2022-12-07T04:19:29;-1.48;96.05
70154;DHT22;57519;51.494;-2.626;2022-12-07T04:21:55;-1.37;96.09
70154;DHT22;57519;51.494;-2.626;2022-12-07T04:24:21;-1.30;96.17
70154;DHT22;57519;51.494;-2.626;2022-12-07T04:26:47;-1.25;96.16
70154;DHT22;57519;51.494;-2.626;2022-12-07T04:29:13;-1.25;96.15
70154;DHT22;57519;51.494;-2.626;2022-12-07T04:31:39;-1.25;96.05
70154;DHT22;57519;51.494;-2.626;2022-12-07T04:34:05;-1.37;95.89
70154;DHT22;57519;51.494;-2.626;2022-12-07T04:36:32;-1.48;95.76
70154;DHT22;57519;51.494;-2.626;2022-12-07T04:38:57;-1.56;95.72
70154;DHT22;57519;51.494;-2.626;2022-12-07T04:41:23;-1.60;95.77
70154;DHT22;57519;51.494;-2.626;2022-12-07T04:43:56;-1.64;95.83
70154;DHT22;57519;51.494;-2.626;2022-12-07T04:46:23;-1.66;95.94
70154;DHT22;57519;51.494;-2.626;2022-12-07T04:48:50;-1.67;95.97
70154;DHT22;57519;51.494;-2.626;2022-12-07T04:51:19;-1.61;96.06
70154;DHT22;57519;51.494;-2.626;2022-12-07T04:53:45;-1.64;96.09
70154;DHT22;57519;51.494;-2.626;2022-12-07T04:56:10;-1.67;96.07
70154;DHT22;57519;51.494;-2.626;2022-12-07T04:58:36;-1.71;96.02
70154;DHT22;57519;51.494;-2.626;2022-12-07T05:01:01;-1.75;96.05
70154;DHT22;57519;51.494;-2.626;2022-12-07T05:03:27;-1.79;96.09
70154;DHT22;57519;51.494;-2.626;2022-12-07T05:05:52;-1.78;96.07
70154;DHT22;57519;51.494;-2.626;2022-12-07T05:08:18;-1.77;96.11
70154;DHT22;57519;51.494;-2.626;2022-12-07T05:10:43;-1.72;96.12
70154;DHT22;57519;51.494;-2.626;2022-12-07T05:13:09;-1.78;96.11
70154;DHT22;57519;51.494;-2.626;2022-12-07T05:15:34;-1.74;96.15
70154;DHT22;57519;51.494;-2.626;2022-12-07T05:18:00;-1.78;96.11
70154;DHT22;57519;51.494;-2.626;2022-12-07T05:20:25;-1.79;96.06
70154;DHT22;57519;51.494;-2.626;2022-12-07T05:22:51;-1.71;96.12
70154;DHT22;57519;51.494;-2.626;2022-12-07T05:25:16;-1.44;96.59
70154;DHT22;57519;51.494;-2.626;2022-12-07T05:27:41;-1.33;96.66
70154;DHT22;57519;51.494;-2.626;2022-12-07T05:30:07;-1.29;96.66
70154;DHT22;57519;51.494;-2.626;2022-12-07T05:32:33;-1.33;96.52
70154;DHT22;57519;51.494;-2.626;2022-12-07T05:34:58;-1.35;96.33
70154;DHT22;57519;51.494;-2.626;2022-12-07T05:37:23;-1.42;96.16
70154;DHT22;57519;51.494;-2.626;2022-12-07T05:39:49;-1.50;96.00
70154;DHT22;57519;51.494;-2.626;2022-12-07T05:42:14;-1.56;95.94
70154;DHT22;57519;51.494;-2.626;2022-12-07T05:44:42;-1.66;95.83
70154;DHT22;57519;51.494;-2.626;2022-12-07T05:47:08;-1.74;95.82
70154;DHT22;57519;51.494;-2.626;2022-12-07T05:49:34;-1.75;95.91
70154;DHT22;57519;51.494;-2.626;2022-12-07T05:51:59;-1.79;95.91
70154;DHT22;57519;51.494;-2.626;2022-12-07T05:54:24;-1.85;95.96
70154;DHT22;57519;51.494;-2.626;2022-12-07T05:56:50;-1.87;95.97
70154;DHT22;57519;51.494;-2.626;2022-12-07T05:59:16;-1.92;96.03
70154;DHT22;57519;51.494;-2.626;2022-12-07T06:01:52;-1.91;96.12
70154;DHT22;57519;51.494;-2.626;2022-12-07T06:04:17;-1.91;96.13
70154;DHT22;57519;51.494;-2.626;2022-12-07T06:06:43;-1.98;96.07
70154;DHT22;57519;51.494;-2.626;2022-12-07T06:09:09;-1.85;96.18
70154;DHT22;57519;51.494;-2.626;2022-12-07T06:11:35;-1.77;96.17
70154;DHT22;57519;51.494;-2.626;2022-12-07T06:14:18;-1.72;96.19
70154;DHT22;57519;51.494;-2.626;2022-12-07T06:16:44;-1.72;96.17
70154;DHT22;57519;51.494;-2.626;2022-12-07T06:19:10;-1.63;96.16
70154;DHT22;57519;51.494;-2.626;2022-12-07T06:21:35;-1.54;96.17
70154;DHT22;57519;51.494;-2.626;2022-12-07T06:24:01;-1.58;96.12
70154;DHT22;57519;51.494;-2.626;2022-12-07T06:26:27;-1.60;96.03
70154;DHT22;57519;51.494;-2.626;2022-12-07T06:28:52;-1.61;96.03
70154;DHT22;57519;51.494;-2.626;2022-12-07T06:31:17;-1.57;96.08
70154;DHT22;57519;51.494;-2.626;2022-12-07T06:33:43;-1.63;96.09
70154;DHT22;57519;51.494;-2.626;2022-12-07T06:36:09;-1.48;96.34
70154;DHT22;57519;51.494;-2.626;2022-12-07T06:38:35;-1.42;96.49
70154;DHT22;57519;51.494;-2.626;2022-12-07T06:41:00;-1.54;96.37
70154;DHT22;57519;51.494;-2.626;2022-12-07T06:43:26;-1.66;96.22
70154;DHT22;57519;51.494;-2.626;2022-12-07T06:45:52;-1.78;96.06
70154;DHT22;57519;51.494;-2.626;2022-12-07T06:48:17;-1.84;95.94
70154;DHT22;57519;51.494;-2.626;2022-12-07T06:50:47;-1.95;95.91
70154;DHT22;57519;51.494;-2.626;2022-12-07T06:53:13;-1.99;95.90
70154;DHT22;57519;51.494;-2.626;2022-12-07T06:55:38;-1.96;95.96
70154;DHT22;57519;51.494;-2.626;2022-12-07T06:58:04;-1.94;96.05
70154;DHT22;57519;51.494;-2.626;2022-12-07T07:00:29;-1.98;96.02
70154;DHT22;57519;51.494;-2.626;2022-12-07T07:02:55;-2.01;96.02
70154;DHT22;57519;51.494;-2.626;2022-12-07T07:05:21;-1.99;95.98
70154;DHT22;57519;51.494;-2.626;2022-12-07T07:07:50;-2.02;95.96
70154;DHT22;57519;51.494;-2.626;2022-12-07T07:10:15;-2.03;95.95
70154;DHT22;57519;51.494;-2.626;2022-12-07T07:12:41;-2.05;96.00
70154;DHT22;57519;51.494;-2.626;2022-12-07T07:15:07;-2.05;96.00
70154;DHT22;57519;51.494;-2.626;2022-12-07T07:17:32;-2.02;96.02
70154;DHT22;57519;51.494;-2.626;2022-12-07T07:19:58;-2.05;96.07
70154;DHT22;57519;51.494;-2.626;2022-12-07T07:22:23;-2.05;96.07
70154;DHT22;57519;51.494;-2.626;2022-12-07T07:24:49;-2.10;96.00
70154;DHT22;57519;51.494;-2.626;2022-12-07T07:27:14;-2.13;95.97
70154;DHT22;57519;51.494;-2.626;2022-12-07T07:29:39;-2.09;96.00
70154;DHT22;57519;51.494;-2.626;2022-12-07T07:32:05;-2.18;95.93
70154;DHT22;57519;51.494;-2.626;2022-12-07T07:34:30;-2.26;95.85
70154;DHT22;57519;51.494;-2.626;2022-12-07T07:36:56;-2.22;95.97
70154;DHT22;57519;51.494;-2.626;2022-12-07T07:39:21;-2.26;95.94
70154;DHT22;57519;51.494;-2.626;2022-12-07T07:41:46;-2.19;95.91
70154;DHT22;57519;51.494;-2.626;2022-12-07T07:44:12;-2.26;95.88
70154;DHT22;57519;51.494;-2.626;2022-12-07T07:46:38;-2.21;95.92
70154;DHT22;57519;51.494;-2.626;2022-12-07T07:49:03;-2.29;95.94
70154;DHT22;57519;51.494;-2.626;2022-12-07T07:51:28;-2.23;95.99
70154;DHT22;57519;51.494;-2.626;2022-12-07T07:53:57;-2.25;96.06
70154;DHT22;57519;51.494;-2.626;2022-12-07T07:56:22;-2.18;96.13
70154;DHT22;57519;51.494;-2.626;2022-12-07T07:58:51;-2.18;96.14
70154;DHT22;57519;51.494;-2.626;2022-12-07T08:01:17;-2.15;96.12
70154;DHT22;57519;51.494;-2.626;2022-12-07T08:03:45;-2.13;96.01
70154;DHT22;57519;51.494;-2.626;2022-12-07T08:06:11;-2.16;96.01
70154;DHT22;57519;51.494;-2.626;2022-12-07T08:08:36;-2.22;95.92
70154;DHT22;57519;51.494;-2.626;2022-12-07T08:11:05;-2.18;95.89
70154;DHT22;57519;51.494;-2.626;2022-12-07T08:13:30;-2.15;95.83
70154;DHT22;57519;51.494;-2.626;2022-12-07T08:15:56;-2.21;95.75
70154;DHT22;57519;51.494;-2.626;2022-12-07T08:18:21;-2.25;95.62
70154;DHT22;57519;51.494;-2.626;2022-12-07T08:20:47;-2.26;95.64
70154;DHT22;57519;51.494;-2.626;2022-12-07T08:23:12;-2.26;95.63
70154;DHT22;57519;51.494;-2.626;2022-12-07T08:25:38;-2.21;95.60
70154;DHT22;57519;51.494;-2.626;2022-12-07T08:28:04;-2.21;95.63
70154;DHT22;57519;51.494;-2.626;2022-12-07T08:30:30;-2.16;95.64
70154;DHT22;57519;51.494;-2.626;2022-12-07T08:32:57;-2.09;95.70
70154;DHT22;57519;51.494;-2.626;2022-12-07T08:35:23;-2.03;95.70
70154;DHT22;57519;51.494;-2.626;2022-12-07T08:37:48;-1.99;95.69
70154;DHT22;57519;51.494;-2.626;2022-12-07T08:40:14;-1.84;95.73
70154;DHT22;57519;51.494;-2.626;2022-12-07T08:42:43;-1.79;95.62
70154;DHT22;57519;51.494;-2.626;2022-12-07T08:45:14;-1.81;95.53
70154;DHT22;57519;51.494;-2.626;2022-12-07T08:47:54;-1.71;95.50
70154;DHT22;57519;51.494;-2.626;2022-12-07T08:50:21;-1.68;95.45
70154;DHT22;57519;51.494;-2.626;2022-12-07T08:52:55;-1.70;95.24
70154;DHT22;57519;51.494;-2.626;2022-12-07T08:55:22;-1.68;95.06
70154;DHT22;57519;51.494;-2.626;2022-12-07T08:57:48;-1.71;94.89
70154;DHT22;57519;51.494;-2.626;2022-12-07T09:00:14;-1.70;94.88
70154;DHT22;57519;51.494;-2.626;2022-12-07T09:02:40;-1.72;94.87
70154;DHT22;57519;51.494;-2.626;2022-12-07T09:05:05;-1.64;94.93
70154;DHT22;57519;51.494;-2.626;2022-12-07T09:07:32;-1.63;94.92
70154;DHT22;57519;51.494;-2.626;2022-12-07T09:09:58;-1.53;95.01
70154;DHT22;57519;51.494;-2.626;2022-12-07T09:12:24;-1.48;95.04
70154;DHT22;57519;51.494;-2.626;2022-12-07T09:14:49;-1.42;95.01
70154;DHT22;57519;51.494;-2.626;2022-12-07T09:17:15;-1.36;94.97
70154;DHT22;57519;51.494;-2.626;2022-12-07T09:19:40;-1.30;94.87
70154;DHT22;57519;51.494;-2.626;2022-12-07T09:22:07;-1.23;94.79
70154;DHT22;57519;51.494;-2.626;2022-12-07T09:24:33;-1.21;94.73
70154;DHT22;57519;51.494;-2.626;2022-12-07T09:26:58;-1.13;94.68
70154;DHT22;57519;51.494;-2.626;2022-12-07T09:29:24;-0.99;94.86
70154;DHT22;57519;51.494;-2.626;2022-12-07T09:31:50;-0.93;94.76
70154;DHT22;57519;51.494;-2.626;2022-12-07T09:34:16;-0.88;94.66
70154;DHT22;57519;51.494;-2.626;2022-12-07T09:36:41;-0.75;94.66
70154;DHT22;57519;51.494;-2.626;2022-12-07T09:39:07;-0.64;94.51
70154;DHT22;57519;51.494;-2.626;2022-12-07T09:41:37;-0.51;94.39
70154;DHT22;57519;51.494;-2.626;2022-12-07T09:44:10;-0.43;94.28
70154;DHT22;57519;51.494;-2.626;2022-12-07T09:46:40;-0.37;94.25
70154;DHT22;57519;51.494;-2.626;2022-12-07T09:49:22;-0.34;94.20
70154;DHT22;57519;51.494;-2.626;2022-12-07T09:52:24;-0.33;94.15
70154;DHT22;57519;51.494;-2.626;2022-12-07T09:54:48;-0.24;94.19
70154;DHT22;57519;51.494;-2.626;2022-12-07T09:57:14;-0.16;94.39
70154;DHT22;57519;51.494;-2.626;2022-12-07T09:59:40;-0.06;94.42
70154;DHT22;57519;51.494;-2.626;2022-12-07T10:02:32;0.01;94.34
70154;DHT22;57519;51.494;-2.626;2022-12-07T10:04:59;0.11;94.33
70154;DHT22;57519;51.494;-2.626;2022-12-07T10:07:25;0.16;94.24
70154;DHT22;57519;51.494;-2.626;2022-12-07T10:09:50;0.29;94.34
70154;DHT22;57519;51.494;-2.626;2022-12-07T10:12:16;0.39;94.27
70154;DHT22;57519;51.494;-2.626;2022-12-07T10:15:17;0.49;94.03
70154;DHT22;57519;51.494;-2.626;2022-12-07T10:17:49;0.53;93.89
70154;DHT22;57519;51.494;-2.626;2022-12-07T10:20:17;0.54;93.83
70154;DHT22;57519;51.494;-2.626;2022-12-07T10:23:00;0.53;93.87
70154;DHT22;57519;51.494;-2.626;2022-12-07T10:25:35;0.64;93.84
70154;DHT22;57519;51.494;-2.626;2022-12-07T10:28:01;0.81;93.67
70154;DHT22;57519;51.494;-2.626;2022-12-07T10:30:29;1.02;93.77
70154;DHT22;57519;51.494;-2.626;2022-12-07T10:32:54;1.27;93.76
70154;DHT22;57519;51.494;-2.626;2022-12-07T10:35:26;1.56;93.66
70154;DHT22;57519;51.494;-2.626;2022-12-07T10:37:53;1.84;93.33
70154;DHT22;57519;51.494;-2.626;2022-12-07T10:40:35;2.10;93.04
70154;DHT22;57519;51.494;-2.626;2022-12-07T10:46:00;2.62;92.47
70154;DHT22;57519;51.494;-2.626;2022-12-07T10:51:04;2.97;92.30
70154;DHT22;57519;51.494;-2.626;2022-12-07T11:05:02;3.36;87.92
70154;DHT22;57519;51.494;-2.626;2022-12-07T11:15:31;3.62;86.81
70154;DHT22;57519;51.494;-2.626;2022-12-07T11:18:19;3.68;86.63
70154;DHT22;57519;51.494;-2.626;2022-12-07T11:20:59;3.82;86.14
70154;DHT22;57519;51.494;-2.626;2022-12-07T11:24:00;3.86;85.37
70154;DHT22;57519;51.494;-2.626;2022-12-07T11:37:34;4.21;86.38
70154;DHT22;57519;51.494;-2.626;2022-12-07T11:42:37;4.06;85.66
70154;DHT22;57519;51.494;-2.626;2022-12-07T11:45:31;4.13;85.79
70154;DHT22;57519;51.494;-2.626;2022-12-07T11:48:11;4.17;85.14
70154;DHT22;57519;51.494;-2.626;2022-12-07T11:50:45;4.17;85.02
70154;DHT22;57519;51.494;-2.626;2022-12-07T11:53:26;4.24;83.90
70154;DHT22;57519;51.494;-2.626;2022-12-07T11:56:23;4.30;84.87
70154;DHT22;57519;51.494;-2.626;2022-12-07T12:04:17;4.41;84.67
70154;DHT22;57519;51.494;-2.626;2022-12-07T12:06:44;4.57;85.14
70154;DHT22;57519;51.494;-2.626;2022-12-07T12:10:04;4.61;84.22
70154;DHT22;57519;51.494;-2.626;2022-12-07T12:20:55;4.65;82.91
70154;DHT22;57519;51.494;-2.626;2022-12-07T12:26:00;4.54;82.91
70154;DHT22;57519;51.494;-2.626;2022-12-07T12:33:55;4.68;83.18
70154;DHT22;57519;51.494;-2.626;2022-12-07T12:38:50;4.76;83.55
70154;DHT22;57519;51.494;-2.626;2022-12-07T12:41:51;4.82;83.01
70154;DHT22;57519;51.494;-2.626;2022-12-07T12:47:02;5.00;83.58
70154;DHT22;57519;51.494;-2.626;2022-12-07T12:52:01;4.95;82.65
70154;DHT22;57519;51.494;-2.626;2022-12-07T12:57:35;5.06;83.06
70154;DHT22;57519;51.494;-2.626;2022-12-07T13:00:15;5.09;83.02
70154;DHT22;57519;51.494;-2.626;2022-12-07T13:02:48;5.09;83.60
70154;DHT22;57519;51.494;-2.626;2022-12-07T13:05:19;5.05;82.64
70154;DHT22;57519;51.494;-2.626;2022-12-07T13:13:01;4.96;83.37
70154;DHT22;57519;51.494;-2.626;2022-12-07T13:18:14;5.07;83.95
70154;DHT22;57519;51.494;-2.626;2022-12-07T13:20:49;5.09;83.47
70154;DHT22;57519;51.494;-2.626;2022-12-07T13:23:29;5.09;83.89
70154;DHT22;57519;51.494;-2.626;2022-12-07T13:26:04;5.13;83.01
70154;DHT22;57519;51.494;-2.626;2022-12-07T13:28:37;5.16;82.02
70154;DHT22;57519;51.494;-2.626;2022-12-07T13:31:09;4.96;80.10
70154;DHT22;57519;51.494;-2.626;2022-12-07T13:33:36;5.03;79.50
70154;DHT22;57519;51.494;-2.626;2022-12-07T13:36:02;4.90;80.13
70154;DHT22;57519;51.494;-2.626;2022-12-07T13:38:35;4.89;80.91
70154;DHT22;57519;51.494;-2.626;2022-12-07T13:41:11;4.96;79.99
70154;DHT22;57519;51.494;-2.626;2022-12-07T13:44:00;4.96;80.37
70154;DHT22;57519;51.494;-2.626;2022-12-07T13:46:35;4.96;80.54
70154;DHT22;57519;51.494;-2.626;2022-12-07T13:49:17;4.96;79.52
70154;DHT22;57519;51.494;-2.626;2022-12-07T13:51:42;4.83;80.00
70154;DHT22;57519;51.494;-2.626;2022-12-07T13:54:12;4.80;81.13
70154;DHT22;57519;51.494;-2.626;2022-12-07T13:56:38;4.86;81.27
70154;DHT22;57519;51.494;-2.626;2022-12-07T13:59:14;4.83;80.70
70154;DHT22;57519;51.494;-2.626;2022-12-07T14:01:41;4.86;81.70
70154;DHT22;57519;51.494;-2.626;2022-12-07T14:04:29;4.93;81.44
70154;DHT22;57519;51.494;-2.626;2022-12-07T14:06:55;4.86;80.34
70154;DHT22;57519;51.494;-2.626;2022-12-07T14:09:22;4.95;80.63
70154;DHT22;57519;51.494;-2.626;2022-12-07T14:11:50;4.89;79.82
70154;DHT22;57519;51.494;-2.626;2022-12-07T14:14:25;4.87;80.46
70154;DHT22;57519;51.494;-2.626;2022-12-07T14:17:20;4.86;80.79
70154;DHT22;57519;51.494;-2.626;2022-12-07T14:22:32;4.79;79.74
70154;DHT22;57519;51.494;-2.626;2022-12-07T14:27:58;4.62;79.38
70154;DHT22;57519;51.494;-2.626;2022-12-07T14:30:32;4.65;79.48
70154;DHT22;57519;51.494;-2.626;2022-12-07T14:33:03;4.49;79.73
70154;DHT22;57519;51.494;-2.626;2022-12-07T14:35:30;4.55;80.33
70154;DHT22;57519;51.494;-2.626;2022-12-07T14:37:56;4.54;80.80
70154;DHT22;57519;51.494;-2.626;2022-12-07T14:40:27;4.45;81.29
70154;DHT22;57519;51.494;-2.626;2022-12-07T14:45:23;4.47;81.28
70154;DHT22;57519;51.494;-2.626;2022-12-07T14:47:49;4.41;80.63
70154;DHT22;57519;51.494;-2.626;2022-12-07T14:50:17;4.42;80.94
70154;DHT22;57519;51.494;-2.626;2022-12-07T14:52:49;4.37;80.77
70154;DHT22;57519;51.494;-2.626;2022-12-07T14:55:28;4.34;81.08
70154;DHT22;57519;51.494;-2.626;2022-12-07T14:57:55;4.27;81.27
70154;DHT22;57519;51.494;-2.626;2022-12-07T15:00:22;4.17;81.66
70154;DHT22;57519;51.494;-2.626;2022-12-07T15:02:48;4.07;83.03
70154;DHT22;57519;51.494;-2.626;2022-12-07T15:05:14;3.94;82.69
70154;DHT22;57519;51.494;-2.626;2022-12-07T15:07:40;3.79;82.88
70154;DHT22;57519;51.494;-2.626;2022-12-07T15:10:06;3.63;83.87
70154;DHT22;57519;51.494;-2.626;2022-12-07T15:12:35;3.44;84.65
70154;DHT22;57519;51.494;-2.626;2022-12-07T15:15:00;3.32;85.47
70154;DHT22;57519;51.494;-2.626;2022-12-07T15:17:26;3.24;86.23
70154;DHT22;57519;51.494;-2.626;2022-12-07T15:19:52;3.14;85.96
70154;DHT22;57519;51.494;-2.626;2022-12-07T15:22:17;2.94;86.88
70154;DHT22;57519;51.494;-2.626;2022-12-07T15:24:43;2.80;87.39
70154;DHT22;57519;51.494;-2.626;2022-12-07T15:27:08;2.66;88.36
70154;DHT22;57519;51.494;-2.626;2022-12-07T15:29:33;2.59;88.25
70154;DHT22;57519;51.494;-2.626;2022-12-07T15:31:59;2.46;88.68
70154;DHT22;57519;51.494;-2.626;2022-12-07T15:34:25;2.27;88.76
70154;DHT22;57519;51.494;-2.626;2022-12-07T15:36:53;2.07;89.59
70154;DHT22;57519;51.494;-2.626;2022-12-07T15:39:19;1.94;90.13
70154;DHT22;57519;51.494;-2.626;2022-12-07T15:41:44;1.84;90.50
70154;DHT22;57519;51.494;-2.626;2022-12-07T15:44:11;1.71;90.67
70154;DHT22;57519;51.494;-2.626;2022-12-07T15:46:55;1.53;91.07
70154;DHT22;57519;51.494;-2.626;2022-12-07T15:49:21;1.45;91.67
70154;DHT22;57519;51.494;-2.626;2022-12-07T15:51:46;1.27;91.92
70154;DHT22;57519;51.494;-2.626;2022-12-07T15:54:31;1.11;92.21
70154;DHT22;57519;51.494;-2.626;2022-12-07T15:56:58;1.02;92.52
70154;DHT22;57519;51.494;-2.626;2022-12-07T15:59:26;0.93;92.63
70154;DHT22;57519;51.494;-2.626;2022-12-07T16:01:52;0.90;92.82
70154;DHT22;57519;51.494;-2.626;2022-12-07T16:04:17;0.79;92.87
70154;DHT22;57519;51.494;-2.626;2022-12-07T16:06:44;0.70;93.08
70154;DHT22;57519;51.494;-2.626;2022-12-07T16:09:10;0.64;93.17
70154;DHT22;57519;51.494;-2.626;2022-12-07T16:11:35;0.50;93.21
70154;DHT22;57519;51.494;-2.626;2022-12-07T16:14:01;0.38;93.28
70154;DHT22;57519;51.494;-2.626;2022-12-07T16:16:27;0.32;93.45
70154;DHT22;57519;51.494;-2.626;2022-12-07T16:18:53;0.29;93.68
70154;DHT22;57519;51.494;-2.626;2022-12-07T16:21:19;0.19;93.84
70154;DHT22;57519;51.494;-2.626;2022-12-07T16:23:45;0.16;93.90
70154;DHT22;57519;51.494;-2.626;2022-12-07T16:26:16;0.08;93.96
70154;DHT22;57519;51.494;-2.626;2022-12-07T16:28:42;-0.01;94.03
70154;DHT22;57519;51.494;-2.626;2022-12-07T16:31:12;-0.10;94.21
70154;DHT22;57519;51.494;-2.626;2022-12-07T16:33:39;-0.19;94.29
70154;DHT22;57519;51.494;-2.626;2022-12-07T16:36:06;-0.24;94.40
70154;DHT22;57519;51.494;-2.626;2022-12-07T16:38:32;-0.27;94.59
70154;DHT22;57519;51.494;-2.626;2022-12-07T16:40:58;-0.33;94.73
70154;DHT22;57519;51.494;-2.626;2022-12-07T16:43:23;-0.33;94.81
70154;DHT22;57519;51.494;-2.626;2022-12-07T16:45:49;-0.38;94.77
70154;DHT22;57519;51.494;-2.626;2022-12-07T16:48:15;-0.47;94.73
70154;DHT22;57519;51.494;-2.626;2022-12-07T16:50:42;-0.53;94.75
70154;DHT22;57519;51.494;-2.626;2022-12-07T16:53:11;-0.60;94.79
70154;DHT22;57519;51.494;-2.626;2022-12-07T16:55:42;-0.60;94.87
70154;DHT22;57519;51.494;-2.626;2022-12-07T16:58:08;-0.67;94.92
70154;DHT22;57519;51.494;-2.626;2022-12-07T17:00:34;-0.70;94.97
70154;DHT22;57519;51.494;-2.626;2022-12-07T17:03:00;-0.74;95.03
70154;DHT22;57519;51.494;-2.626;2022-12-07T17:05:26;-0.75;95.03
70154;DHT22;57519;51.494;-2.626;2022-12-07T17:07:53;-0.80;95.07
70154;DHT22;57519;51.494;-2.626;2022-12-07T17:10:18;-0.78;95.09
70154;DHT22;57519;51.494;-2.626;2022-12-07T17:12:44;-0.78;95.08
70154;DHT22;57519;51.494;-2.626;2022-12-07T17:15:09;-0.77;95.15
70154;DHT22;57519;51.494;-2.626;2022-12-07T17:17:51;-0.75;95.34
70154;DHT22;57519;51.494;-2.626;2022-12-07T17:20:17;-0.78;95.46
70154;DHT22;57519;51.494;-2.626;2022-12-07T17:22:42;-0.81;95.46
70154;DHT22;57519;51.494;-2.626;2022-12-07T17:25:08;-0.77;95.47
70154;DHT22;57519;51.494;-2.626;2022-12-07T17:27:35;-0.85;95.39
70154;DHT22;57519;51.494;-2.626;2022-12-07T17:30:01;-0.92;95.32
70154;DHT22;57519;51.494;-2.626;2022-12-07T17:32:26;-0.99;95.32
70154;DHT22;57519;51.494;-2.626;2022-12-07T17:34:51;-1.09;95.29
70154;DHT22;57519;51.494;-2.626;2022-12-07T17:37:17;-1.15;95.32
70154;DHT22;57519;51.494;-2.626;2022-12-07T17:39:42;-1.17;95.45
70154;DHT22;57519;51.494;-2.626;2022-12-07T17:42:08;-1.20;95.54
70154;DHT22;57519;51.494;-2.626;2022-12-07T17:44:52;-1.20;95.57